sensor_id;sensor_type;location;lat;lon;timestamp;P1;P2;P0
57563;PMS7003;43400;45.926;6.724;2023-01-29T00:01:24;38.75;35.50;25.25
57563;PMS7003;43400;45.926;6.724;2023-01-29T00:03:56;46.75;44.00;29.00
57563;PMS7003;43400;45.926;6.724;2023-01-29T00:06:28;43.00;41.40;25.00
57563;PMS7003;43400;45.926;6.724;2023-01-29T00:09:00;38.50;37.50;25.00
57563;PMS7003;43400;45.926;6.724;2023-01-29T00:11:32;35.50;34.75;24.50
57563;PMS7003;43400;45.926;6.724;2023-01-29T00:14:04;36.60;32.20;22.20
57563;PMS7003;43400;45.926;6.724;2023-01-29T00:16:36;53.00;43.25;25.50
57563;PMS7003;43400;45.926;6.724;2023-01-29T00:19:08;52.00;44.00;29.00
57563;PMS7003;43400;45.926;6.724;2023-01-29T00:21:41;40.40;38.80;25.00
57563;PMS7003;43400;45.926;6.724;2023-01-29T00:24:14;42.80;38.80;24.00
57563;PMS7003;43400;45.926;6.724;2023-01-29T00:26:46;45.80;43.60;25.00
57563;PMS7003;43400;45.926;6.724;2023-01-29T00:29:18;46.40;41.40;29.80
57563;PMS7003;43400;45.926;6.724;2023-01-29T00:31:50;51.75;46.00;31.00
57563;PMS7003;43400;45.926;6.724;2023-01-29T00:34:22;42.80;41.20;28.40
57563;PMS7003;43400;45.926;6.724;2023-01-29T00:36:54;33.25;31.50;24.00
57563;PMS7003;43400;45.926;6.724;2023-01-29T00:39:27;48.00;41.25;24.00
57563;PMS7003;43400;45.926;6.724;2023-01-29T00:42:00;41.80;37.60;22.00
57563;PMS7003;43400;45.926;6.724;2023-01-29T00:44:33;43.40;42.00;25.00
57563;PMS7003;43400;45.926;6.724;2023-01-29T00:47:05;40.80;38.60;25.00
57563;PMS7003;43400;45.926;6.724;2023-01-29T00:49:36;36.75;35.75;23.50
57563;PMS7003;43400;45.926;6.724;2023-01-29T00:52:08;38.60;35.60;24.20
57563;PMS7003;43400;45.926;6.724;2023-01-29T00:54:42;34.00;32.75;23.25
57563;PMS7003;43400;45.926;6.724;2023-01-29T00:57:15;46.50;44.25;25.50
57563;PMS7003;43400;45.926;6.724;2023-01-29T00:59:47;40.50;37.50;27.00
57563;PMS7003;43400;45.926;6.724;2023-01-29T01:02:19;37.75;37.75;23.50
57563;PMS7003;43400;45.926;6.724;2023-01-29T01:04:52;39.33;38.33;23.00
57563;PMS7003;43400;45.926;6.724;2023-01-29T01:07:24;71.25;56.25;34.00
57563;PMS7003;43400;45.926;6.724;2023-01-29T01:09:56;49.00;45.80;23.60
57563;PMS7003;43400;45.926;6.724;2023-01-29T01:12:28;81.50;63.25;40.00
57563;PMS7003;43400;45.926;6.724;2023-01-29T01:15:01;49.40;44.00;28.00
57563;PMS7003;43400;45.926;6.724;2023-01-29T01:17:33;37.80;37.80;25.00
57563;PMS7003;43400;45.926;6.724;2023-01-29T01:20:05;42.25;40.25;26.00
57563;PMS7003;43400;45.926;6.724;2023-01-29T01:22:37;40.00;39.25;23.50
57563;PMS7003;43400;45.926;6.724;2023-01-29T01:25:10;34.75;31.25;22.00
57563;PMS7003;43400;45.926;6.724;2023-01-29T01:27:41;38.00;36.50;23.00
57563;PMS7003;43400;45.926;6.724;2023-01-29T01:30:14;48.40;42.40;24.20
57563;PMS7003;43400;45.926;6.724;2023-01-29T01:32:47;43.20;41.00;28.00
57563;PMS7003;43400;45.926;6.724;2023-01-29T01:35:20;41.60;39.40;25.00
57563;PMS7003;43400;45.926;6.724;2023-01-29T01:37:52;40.20;38.20;21.00
57563;PMS7003;43400;45.926;6.724;2023-01-29T01:40:24;36.40;35.20;22.00
57563;PMS7003;43400;45.926;6.724;2023-01-29T01:42:57;40.50;37.00;24.00
57563;PMS7003;43400;45.926;6.724;2023-01-29T01:48:05;33.25;31.25;20.00
57563;PMS7003;43400;45.926;6.724;2023-01-29T01:50:49;36.80;31.20;19.00
57563;PMS7003;43400;45.926;6.724;2023-01-29T01:53:25;35.00;31.60;22.80
57563;PMS7003;43400;45.926;6.724;2023-01-29T01:56:06;31.40;29.00;19.00
57563;PMS7003;43400;45.926;6.724;2023-01-29T01:58:45;28.40;28.40;20.80
57563;PMS7003;43400;45.926;6.724;2023-01-29T02:01:21;28.75;28.00;20.00
57563;PMS7003;43400;45.926;6.724;2023-01-29T02:04:00;30.00;27.60;19.80
57563;PMS7003;43400;45.926;6.724;2023-01-29T02:06:36;41.00;38.25;22.50
57563;PMS7003;43400;45.926;6.724;2023-01-29T02:09:12;38.00;33.75;19.25
57563;PMS7003;43400;45.926;6.724;2023-01-29T02:11:50;38.00;35.25;20.50
57563;PMS7003;43400;45.926;6.724;2023-01-29T02:14:22;32.00;29.00;22.20
57563;PMS7003;43400;45.926;6.724;2023-01-29T02:16:54;35.50;35.00;22.00
57563;PMS7003;43400;45.926;6.724;2023-01-29T02:19:37;31.25;28.50;20.50
57563;PMS7003;43400;45.926;6.724;2023-01-29T02:34:11;34.20;31.60;21.20
57563;PMS7003;43400;45.926;6.724;2023-01-29T02:36:49;33.50;33.00;22.50
57563;PMS7003;43400;45.926;6.724;2023-01-29T02:39:36;35.25;34.00;21.50
57563;PMS7003;43400;45.926;6.724;2023-01-29T02:44:59;36.50;36.25;23.75
57563;PMS7003;43400;45.926;6.724;2023-01-29T02:47:47;41.75;37.50;22.25
57563;PMS7003;43400;45.926;6.724;2023-01-29T02:50:36;39.50;39.50;22.50
57563;PMS7003;43400;45.926;6.724;2023-01-29T02:53:16;33.00;32.00;20.00
57563;PMS7003;43400;45.926;6.724;2023-01-29T02:56:08;39.50;37.00;20.50
57563;PMS7003;43400;45.926;6.724;2023-01-29T02:58:46;41.60;37.20;22.60
57563;PMS7003;43400;45.926;6.724;2023-01-29T03:01:32;35.60;34.80;23.00
57563;PMS7003;43400;45.926;6.724;2023-01-29T03:04:14;37.75;34.50;22.25
57563;PMS7003;43400;45.926;6.724;2023-01-29T03:06:56;38.20;36.00;22.60
57563;PMS7003;43400;45.926;6.724;2023-01-29T03:09:41;34.50;31.50;20.50
57563;PMS7003;43400;45.926;6.724;2023-01-29T03:12:25;41.00;34.60;22.80
57563;PMS7003;43400;45.926;6.724;2023-01-29T03:14:59;38.40;38.20;22.80
57563;PMS7003;43400;45.926;6.724;2023-01-29T03:17:36;38.67;36.00;22.00
57563;PMS7003;43400;45.926;6.724;2023-01-29T03:20:25;36.20;34.60;20.00
57563;PMS7003;43400;45.926;6.724;2023-01-29T03:23:04;37.25;34.00;21.75
57563;PMS7003;43400;45.926;6.724;2023-01-29T03:25:40;33.60;30.80;20.00
57563;PMS7003;43400;45.926;6.724;2023-01-29T03:28:15;39.40;37.60;23.40
57563;PMS7003;43400;45.926;6.724;2023-01-29T03:30:52;36.00;34.20;21.80
57563;PMS7003;43400;45.926;6.724;2023-01-29T03:33:26;41.00;36.50;23.00
57563;PMS7003;43400;45.926;6.724;2023-01-29T03:36:05;37.00;34.50;22.00
57563;PMS7003;43400;45.926;6.724;2023-01-29T03:38:43;43.50;37.50;23.00
57563;PMS7003;43400;45.926;6.724;2023-01-29T03:44:09;36.00;33.40;22.60
57563;PMS7003;43400;45.926;6.724;2023-01-29T03:46:55;39.00;34.50;22.00
57563;PMS7003;43400;45.926;6.724;2023-01-29T03:52:57;32.25;30.00;23.50
57563;PMS7003;43400;45.926;6.724;2023-01-29T03:55:53;38.00;35.00;23.75
57563;PMS7003;43400;45.926;6.724;2023-01-29T03:58:49;32.00;32.00;22.00
57563;PMS7003;43400;45.926;6.724;2023-01-29T04:01:39;35.00;33.00;20.00
57563;PMS7003;43400;45.926;6.724;2023-01-29T04:04:26;40.50;34.50;22.00
57563;PMS7003;43400;45.926;6.724;2023-01-29T04:07:04;37.00;32.75;22.00
57563;PMS7003;43400;45.926;6.724;2023-01-29T04:09:53;41.60;39.80;24.40
57563;PMS7003;43400;45.926;6.724;2023-01-29T04:12:32;40.00;38.00;23.50
57563;PMS7003;43400;45.926;6.724;2023-01-29T04:15:10;45.50;39.50;23.00
57563;PMS7003;43400;45.926;6.724;2023-01-29T04:17:51;39.50;36.50;23.00
57563;PMS7003;43400;45.926;6.724;2023-01-29T04:20:23;32.00;29.20;20.40
57563;PMS7003;43400;45.926;6.724;2023-01-29T04:22:55;30.60;29.40;20.80
57563;PMS7003;43400;45.926;6.724;2023-01-29T04:25:28;33.00;29.75;22.50
57563;PMS7003;43400;45.926;6.724;2023-01-29T04:28:18;35.00;32.00;22.00
57563;PMS7003;43400;45.926;6.724;2023-01-29T04:31:00;39.50;38.25;26.00
57563;PMS7003;43400;45.926;6.724;2023-01-29T04:41:54;33.00;33.00;22.00
57563;PMS7003;43400;45.926;6.724;2023-01-29T04:44:53;32.50;32.00;23.00
57563;PMS7003;43400;45.926;6.724;2023-01-29T04:50:59;35.60;31.40;23.00
57563;PMS7003;43400;45.926;6.724;2023-01-29T04:59:36;38.50;35.50;23.00
57563;PMS7003;43400;45.926;6.724;2023-01-29T05:02:12;38.00;35.50;24.00
57563;PMS7003;43400;45.926;6.724;2023-01-29T05:04:44;42.50;41.00;23.00
57563;PMS7003;43400;45.926;6.724;2023-01-29T05:07:18;41.00;38.50;23.75
57563;PMS7003;43400;45.926;6.724;2023-01-29T05:09:52;37.00;35.25;25.25
57563;PMS7003;43400;45.926;6.724;2023-01-29T05:12:24;40.60;37.80;24.60
57563;PMS7003;43400;45.926;6.724;2023-01-29T05:14:59;41.00;36.50;25.00
57563;PMS7003;43400;45.926;6.724;2023-01-29T05:17:33;47.60;41.40;20.00
57563;PMS7003;43400;45.926;6.724;2023-01-29T05:20:05;34.00;31.40;22.00
57563;PMS7003;43400;45.926;6.724;2023-01-29T05:22:39;34.75;32.00;23.00
57563;PMS7003;43400;45.926;6.724;2023-01-29T05:25:26;44.25;41.00;23.50
57563;PMS7003;43400;45.926;6.724;2023-01-29T05:28:02;40.80;37.80;23.00
57563;PMS7003;43400;45.926;6.724;2023-01-29T05:30:34;36.20;32.60;21.20
57563;PMS7003;43400;45.926;6.724;2023-01-29T05:33:12;41.50;35.50;23.50
57563;PMS7003;43400;45.926;6.724;2023-01-29T05:35:58;35.00;35.00;21.75
57563;PMS7003;43400;45.926;6.724;2023-01-29T05:38:30;35.25;33.75;22.75
57563;PMS7003;43400;45.926;6.724;2023-01-29T05:41:01;32.25;31.50;22.00
57563;PMS7003;43400;45.926;6.724;2023-01-29T05:43:33;31.80;31.00;21.00
57563;PMS7003;43400;45.926;6.724;2023-01-29T05:46:05;31.80;28.00;18.40
57563;PMS7003;43400;45.926;6.724;2023-01-29T05:48:36;35.50;32.75;20.50
57563;PMS7003;43400;45.926;6.724;2023-01-29T05:51:08;38.33;33.00;19.00
57563;PMS7003;43400;45.926;6.724;2023-01-29T05:53:39;31.50;31.50;19.50
57563;PMS7003;43400;45.926;6.724;2023-01-29T05:56:11;32.20;30.60;19.00
57563;PMS7003;43400;45.926;6.724;2023-01-29T05:58:42;33.80;31.40;18.00
57563;PMS7003;43400;45.926;6.724;2023-01-29T06:01:15;36.75;30.00;19.00
57563;PMS7003;43400;45.926;6.724;2023-01-29T06:03:49;31.80;30.00;18.80
57563;PMS7003;43400;45.926;6.724;2023-01-29T06:06:20;34.50;32.00;19.00
57563;PMS7003;43400;45.926;6.724;2023-01-29T06:08:52;29.00;27.00;17.50
57563;PMS7003;43400;45.926;6.724;2023-01-29T06:11:24;37.20;36.20;24.20
57563;PMS7003;43400;45.926;6.724;2023-01-29T06:13:56;31.20;28.20;18.00
57563;PMS7003;43400;45.926;6.724;2023-01-29T06:16:28;31.00;30.00;19.00
57563;PMS7003;43400;45.926;6.724;2023-01-29T06:19:00;36.20;28.00;18.40
57563;PMS7003;43400;45.926;6.724;2023-01-29T06:21:32;27.75;27.25;16.00
57563;PMS7003;43400;45.926;6.724;2023-01-29T06:24:04;30.00;28.80;19.00
57563;PMS7003;43400;45.926;6.724;2023-01-29T06:26:35;30.50;28.75;19.00
57563;PMS7003;43400;45.926;6.724;2023-01-29T06:29:07;32.50;30.75;15.50
57563;PMS7003;43400;45.926;6.724;2023-01-29T06:31:39;30.75;27.75;19.00
57563;PMS7003;43400;45.926;6.724;2023-01-29T06:34:10;33.60;30.80;20.60
57563;PMS7003;43400;45.926;6.724;2023-01-29T06:36:42;35.50;33.75;19.00
57563;PMS7003;43400;45.926;6.724;2023-01-29T06:39:13;33.40;28.40;16.40
57563;PMS7003;43400;45.926;6.724;2023-01-29T06:41:45;30.60;28.20;18.80
57563;PMS7003;43400;45.926;6.724;2023-01-29T06:44:17;32.25;29.50;17.50
57563;PMS7003;43400;45.926;6.724;2023-01-29T06:46:49;37.00;35.00;21.75
57563;PMS7003;43400;45.926;6.724;2023-01-29T06:49:20;29.00;26.25;18.50
57563;PMS7003;43400;45.926;6.724;2023-01-29T06:51:52;33.40;31.60;20.20
57563;PMS7003;43400;45.926;6.724;2023-01-29T06:54:24;35.20;32.80;19.00
57563;PMS7003;43400;45.926;6.724;2023-01-29T06:56:55;30.25;30.25;21.00
57563;PMS7003;43400;45.926;6.724;2023-01-29T06:59:27;29.75;26.50;17.50
57563;PMS7003;43400;45.926;6.724;2023-01-29T07:01:59;28.00;28.00;20.20
57563;PMS7003;43400;45.926;6.724;2023-01-29T07:04:31;26.50;25.00;17.50
57563;PMS7003;43400;45.926;6.724;2023-01-29T07:07:02;25.80;24.40;15.80
57563;PMS7003;43400;45.926;6.724;2023-01-29T07:09:35;29.75;26.50;19.00
57563;PMS7003;43400;45.926;6.724;2023-01-29T07:12:07;33.25;27.75;15.00
57563;PMS7003;43400;45.926;6.724;2023-01-29T07:14:39;27.00;23.00;17.00
57563;PMS7003;43400;45.926;6.724;2023-01-29T07:17:11;28.00;26.00;18.00
57563;PMS7003;43400;45.926;6.724;2023-01-29T07:19:42;30.50;27.25;17.00
57563;PMS7003;43400;45.926;6.724;2023-01-29T07:22:14;27.50;24.50;15.75
57563;PMS7003;43400;45.926;6.724;2023-01-29T07:24:46;30.00;27.00;16.00
57563;PMS7003;43400;45.926;6.724;2023-01-29T07:27:17;26.50;25.00;18.50
57563;PMS7003;43400;45.926;6.724;2023-01-29T07:29:49;41.75;35.50;22.00
57563;PMS7003;43400;45.926;6.724;2023-01-29T07:32:21;28.80;27.00;16.80
57563;PMS7003;43400;45.926;6.724;2023-01-29T07:34:53;33.40;31.00;15.20
57563;PMS7003;43400;45.926;6.724;2023-01-29T07:37:24;24.80;23.60;16.00
57563;PMS7003;43400;45.926;6.724;2023-01-29T07:39:58;39.50;38.00;24.50
57563;PMS7003;43400;45.926;6.724;2023-01-29T07:42:29;22.40;22.00;15.60
57563;PMS7003;43400;45.926;6.724;2023-01-29T07:45:01;24.80;24.40;16.00
57563;PMS7003;43400;45.926;6.724;2023-01-29T07:47:33;26.75;26.75;16.50
57563;PMS7003;43400;45.926;6.724;2023-01-29T07:50:05;26.33;23.33;16.00
57563;PMS7003;43400;45.926;6.724;2023-01-29T07:52:37;24.75;22.00;15.00
57563;PMS7003;43400;45.926;6.724;2023-01-29T07:55:09;30.20;28.40;19.00
57563;PMS7003;43400;45.926;6.724;2023-01-29T07:57:41;27.00;27.00;16.40
57563;PMS7003;43400;45.926;6.724;2023-01-29T08:00:13;27.80;27.00;16.80
57563;PMS7003;43400;45.926;6.724;2023-01-29T08:02:45;28.50;27.50;16.00
57563;PMS7003;43400;45.926;6.724;2023-01-29T08:05:17;37.00;36.00;23.50
57563;PMS7003;43400;45.926;6.724;2023-01-29T08:07:52;28.80;28.80;20.60
57563;PMS7003;43400;45.926;6.724;2023-01-29T08:10:24;33.00;33.00;21.25
57563;PMS7003;43400;45.926;6.724;2023-01-29T08:12:56;36.50;34.25;21.00
57563;PMS7003;43400;45.926;6.724;2023-01-29T08:15:29;30.50;29.00;19.00
57563;PMS7003;43400;45.926;6.724;2023-01-29T08:18:02;37.00;34.60;22.00
57563;PMS7003;43400;45.926;6.724;2023-01-29T08:20:34;37.33;35.00;22.00
57563;PMS7003;43400;45.926;6.724;2023-01-29T08:23:07;39.00;37.20;24.20
57563;PMS7003;43400;45.926;6.724;2023-01-29T08:25:43;29.00;29.00;20.00
57563;PMS7003;43400;45.926;6.724;2023-01-29T08:28:15;33.40;32.80;19.60
57563;PMS7003;43400;45.926;6.724;2023-01-29T08:30:46;33.25;31.75;18.50
57563;PMS7003;43400;45.926;6.724;2023-01-29T08:33:18;40.80;35.00;22.60
57563;PMS7003;43400;45.926;6.724;2023-01-29T08:35:50;38.60;36.80;22.80
57563;PMS7003;43400;45.926;6.724;2023-01-29T08:38:22;31.00;30.50;20.00
57563;PMS7003;43400;45.926;6.724;2023-01-29T08:40:54;28.00;26.00;19.00
57563;PMS7003;43400;45.926;6.724;2023-01-29T08:43:25;32.00;31.00;20.00
57563;PMS7003;43400;45.926;6.724;2023-01-29T08:45:57;36.40;31.20;20.40
57563;PMS7003;43400;45.926;6.724;2023-01-29T08:48:29;38.50;37.00;21.75
57563;PMS7003;43400;45.926;6.724;2023-01-29T08:51:01;46.00;38.00;23.00
57563;PMS7003;43400;45.926;6.724;2023-01-29T08:53:33;48.80;42.40;27.20
57563;PMS7003;43400;45.926;6.724;2023-01-29T08:56:04;38.20;34.80;21.60
57563;PMS7003;43400;45.926;6.724;2023-01-29T08:58:36;29.60;27.80;19.20
57563;PMS7003;43400;45.926;6.724;2023-01-29T09:01:09;32.50;31.75;20.00
57563;PMS7003;43400;45.926;6.724;2023-01-29T09:03:41;30.75;30.75;19.00
57563;PMS7003;43400;45.926;6.724;2023-01-29T09:06:13;33.80;29.60;20.20
57563;PMS7003;43400;45.926;6.724;2023-01-29T09:08:45;29.80;28.00;19.80
57563;PMS7003;43400;45.926;6.724;2023-01-29T09:11:17;35.25;35.25;22.25
57563;PMS7003;43400;45.926;6.724;2023-01-29T09:13:48;49.00;43.25;23.50
57563;PMS7003;43400;45.926;6.724;2023-01-29T09:16:20;43.25;38.00;23.00
57563;PMS7003;43400;45.926;6.724;2023-01-29T09:18:52;37.80;34.00;20.80
57563;PMS7003;43400;45.926;6.724;2023-01-29T09:21:24;32.20;29.40;19.00
57563;PMS7003;43400;45.926;6.724;2023-01-29T09:23:55;28.80;27.80;19.80
57563;PMS7003;43400;45.926;6.724;2023-01-29T09:26:27;28.60;26.20;19.00
57563;PMS7003;43400;45.926;6.724;2023-01-29T09:28:59;31.40;28.40;19.60
57563;PMS7003;43400;45.926;6.724;2023-01-29T09:31:30;31.25;29.00;19.00
57563;PMS7003;43400;45.926;6.724;2023-01-29T09:34:02;34.00;33.00;20.00
57563;PMS7003;43400;45.926;6.724;2023-01-29T09:36:34;28.25;26.75;16.25
57563;PMS7003;43400;45.926;6.724;2023-01-29T09:39:06;31.00;28.00;17.00
57563;PMS7003;43400;45.926;6.724;2023-01-29T09:47:32;28.25;27.00;18.00
57563;PMS7003;43400;45.926;6.724;2023-01-29T09:50:15;36.50;31.75;19.25
57563;PMS7003;43400;45.926;6.724;2023-01-29T09:53:14;36.20;32.20;17.00
57563;PMS7003;43400;45.926;6.724;2023-01-29T09:55:55;31.75;29.75;19.25
57563;PMS7003;43400;45.926;6.724;2023-01-29T09:58:33;41.20;37.60;25.00
57563;PMS7003;43400;45.926;6.724;2023-01-29T10:09:55;52.25;46.00;27.00
57563;PMS7003;43400;45.926;6.724;2023-01-29T10:15:36;39.50;35.75;21.25
57563;PMS7003;43400;45.926;6.724;2023-01-29T10:24:03;38.25;37.50;23.75
57563;PMS7003;43400;45.926;6.724;2023-01-29T10:26:52;32.00;30.00;18.80
57563;PMS7003;43400;45.926;6.724;2023-01-29T10:29:25;31.50;31.50;20.00
57563;PMS7003;43400;45.926;6.724;2023-01-29T10:32:00;40.20;36.60;20.00
57563;PMS7003;43400;45.926;6.724;2023-01-29T10:37:27;31.00;28.00;19.00
57563;PMS7003;43400;45.926;6.724;2023-01-29T10:40:10;32.25;31.00;21.00
57563;PMS7003;43400;45.926;6.724;2023-01-29T10:43:07;35.80;31.40;20.00
57563;PMS7003;43400;45.926;6.724;2023-01-29T10:51:45;26.00;25.25;18.00
57563;PMS7003;43400;45.926;6.724;2023-01-29T10:54:23;24.40;23.00;16.00
57563;PMS7003;43400;45.926;6.724;2023-01-29T11:00:20;26.75;26.00;18.75
57563;PMS7003;43400;45.926;6.724;2023-01-29T11:02:54;26.20;24.60;16.40
57563;PMS7003;43400;45.926;6.724;2023-01-29T11:05:28;25.60;24.20;19.00
57563;PMS7003;43400;45.926;6.724;2023-01-29T11:08:07;28.00;26.00;19.00
57563;PMS7003;43400;45.926;6.724;2023-01-29T11:10:59;26.20;25.00;16.60
57563;PMS7003;43400;45.926;6.724;2023-01-29T11:13:41;31.00;28.75;19.75
57563;PMS7003;43400;45.926;6.724;2023-01-29T11:16:26;31.20;30.00;20.40
57563;PMS7003;43400;45.926;6.724;2023-01-29T11:19:01;28.60;28.60;19.00
57563;PMS7003;43400;45.926;6.724;2023-01-29T11:21:33;27.00;25.60;16.00
57563;PMS7003;43400;45.926;6.724;2023-01-29T11:24:27;31.40;28.40;19.80
57563;PMS7003;43400;45.926;6.724;2023-01-29T11:26:59;28.00;27.50;19.25
57563;PMS7003;43400;45.926;6.724;2023-01-29T11:37:36;27.40;27.40;20.00
57563;PMS7003;43400;45.926;6.724;2023-01-29T11:45:48;39.20;34.00;23.20
57563;PMS7003;43400;45.926;6.724;2023-01-29T11:48:23;44.20;37.00;26.00
57563;PMS7003;43400;45.926;6.724;2023-01-29T11:51:02;30.80;29.80;20.00
57563;PMS7003;43400;45.926;6.724;2023-01-29T11:53:38;33.80;31.60;23.00
57563;PMS7003;43400;45.926;6.724;2023-01-29T11:59:58;25.40;25.20;18.00
57563;PMS7003;43400;45.926;6.724;2023-01-29T12:02:32;27.80;26.00;19.60
57563;PMS7003;43400;45.926;6.724;2023-01-29T12:05:11;28.25;27.50;20.00
57563;PMS7003;43400;45.926;6.724;2023-01-29T12:07:48;27.20;25.40;18.80
57563;PMS7003;43400;45.926;6.724;2023-01-29T12:13:04;32.50;31.00;20.00
57563;PMS7003;43400;45.926;6.724;2023-01-29T12:15:39;26.75;25.75;18.75
57563;PMS7003;43400;45.926;6.724;2023-01-29T12:18:33;27.00;24.20;19.00
57563;PMS7003;43400;45.926;6.724;2023-01-29T12:21:11;30.50;29.50;20.00
57563;PMS7003;43400;45.926;6.724;2023-01-29T12:33:00;28.20;27.00;20.00
57563;PMS7003;43400;45.926;6.724;2023-01-29T12:35:44;29.33;28.00;18.33
57563;PMS7003;43400;45.926;6.724;2023-01-29T12:38:21;27.40;25.40;18.00
57563;PMS7003;43400;45.926;6.724;2023-01-29T12:41:03;28.50;28.00;19.25
57563;PMS7003;43400;45.926;6.724;2023-01-29T12:44:01;25.60;25.60;19.00
57563;PMS7003;43400;45.926;6.724;2023-01-29T12:46:41;27.00;26.80;16.80
57563;PMS7003;43400;45.926;6.724;2023-01-29T12:49:51;25.75;25.75;17.75
57563;PMS7003;43400;45.926;6.724;2023-01-29T12:52:17;31.00;29.50;19.50
57563;PMS7003;43400;45.926;6.724;2023-01-29T12:55:06;25.20;25.20;17.80
57563;PMS7003;43400;45.926;6.724;2023-01-29T12:57:57;28.75;28.75;19.75
57563;PMS7003;43400;45.926;6.724;2023-01-29T13:00:33;30.60;29.40;19.00
57563;PMS7003;43400;45.926;6.724;2023-01-29T13:03:12;32.60;30.00;20.00
57563;PMS7003;43400;45.926;6.724;2023-01-29T13:05:50;32.67;30.00;20.00
57563;PMS7003;43400;45.926;6.724;2023-01-29T13:08:51;27.00;26.00;19.00
57563;PMS7003;43400;45.926;6.724;2023-01-29T13:11:28;30.75;29.00;19.75
57563;PMS7003;43400;45.926;6.724;2023-01-29T13:14:23;29.50;28.25;19.00
57563;PMS7003;43400;45.926;6.724;2023-01-29T13:20:03;32.40;30.80;20.00
57563;PMS7003;43400;45.926;6.724;2023-01-29T13:22:46;30.75;29.00;19.50
57563;PMS7003;43400;45.926;6.724;2023-01-29T13:25:19;27.20;27.00;19.60
57563;PMS7003;43400;45.926;6.724;2023-01-29T13:27:51;30.40;30.00;18.40
57563;PMS7003;43400;45.926;6.724;2023-01-29T13:30:31;26.20;26.00;18.80
57563;PMS7003;43400;45.926;6.724;2023-01-29T13:33:04;26.50;25.50;17.00
57563;PMS7003;43400;45.926;6.724;2023-01-29T13:35:38;30.25;28.25;19.00
57563;PMS7003;43400;45.926;6.724;2023-01-29T13:38:23;31.60;30.00;20.00
57563;PMS7003;43400;45.926;6.724;2023-01-29T13:41:00;29.80;28.80;19.00
57563;PMS7003;43400;45.926;6.724;2023-01-29T13:43:34;24.40;23.80;18.00
57563;PMS7003;43400;45.926;6.724;2023-01-29T13:46:12;25.50;25.50;16.50
57563;PMS7003;43400;45.926;6.724;2023-01-29T13:48:47;30.60;30.40;19.40
57563;PMS7003;43400;45.926;6.724;2023-01-29T13:51:21;29.00;28.25;18.50
57563;PMS7003;43400;45.926;6.724;2023-01-29T13:54:02;30.25;29.75;18.75
57563;PMS7003;43400;45.926;6.724;2023-01-29T13:56:59;27.00;26.40;19.60
57563;PMS7003;43400;45.926;6.724;2023-01-29T14:02:27;35.00;31.25;20.00
57563;PMS7003;43400;45.926;6.724;2023-01-29T14:08:04;33.75;31.25;20.75
57563;PMS7003;43400;45.926;6.724;2023-01-29T14:13:44;29.00;29.00;19.00
57563;PMS7003;43400;45.926;6.724;2023-01-29T14:18:51;28.75;28.00;18.00
57563;PMS7003;43400;45.926;6.724;2023-01-29T14:21:29;29.80;29.80;19.40
57563;PMS7003;43400;45.926;6.724;2023-01-29T14:26:52;31.75;30.50;18.50
57563;PMS7003;43400;45.926;6.724;2023-01-29T14:29:25;33.75;31.50;22.00
57563;PMS7003;43400;45.926;6.724;2023-01-29T14:34:44;33.33;31.33;19.67
57563;PMS7003;43400;45.926;6.724;2023-01-29T14:37:20;31.00;28.20;19.00
57563;PMS7003;43400;45.926;6.724;2023-01-29T14:39:57;64.50;53.50;37.00
57563;PMS7003;43400;45.926;6.724;2023-01-29T14:42:53;26.00;26.00;20.40
57563;PMS7003;43400;45.926;6.724;2023-01-29T14:45:40;27.40;27.40;20.20
57563;PMS7003;43400;45.926;6.724;2023-01-29T14:51:09;31.25;28.50;18.50
57563;PMS7003;43400;45.926;6.724;2023-01-29T14:53:57;28.40;28.20;19.40
57563;PMS7003;43400;45.926;6.724;2023-01-29T14:56:36;33.25;31.25;21.00
57563;PMS7003;43400;45.926;6.724;2023-01-29T14:59:17;31.00;28.50;18.25
57563;PMS7003;43400;45.926;6.724;2023-01-29T15:01:57;37.75;33.25;22.75
57563;PMS7003;43400;45.926;6.724;2023-01-29T15:04:40;29.40;28.60;21.00
57563;PMS7003;43400;45.926;6.724;2023-01-29T15:07:40;34.20;29.20;20.80
57563;PMS7003;43400;45.926;6.724;2023-01-29T15:11:06;33.60;30.80;22.00
57563;PMS7003;43400;45.926;6.724;2023-01-29T15:16:04;37.67;35.00;23.00
57563;PMS7003;43400;45.926;6.724;2023-01-29T15:18:43;33.75;33.75;23.00
57563;PMS7003;43400;45.926;6.724;2023-01-29T15:21:16;38.00;33.00;22.00
57563;PMS7003;43400;45.926;6.724;2023-01-29T15:23:52;39.50;34.75;22.25
57563;PMS7003;43400;45.926;6.724;2023-01-29T15:26:34;36.75;34.00;24.00
57563;PMS7003;43400;45.926;6.724;2023-01-29T15:29:18;38.00;36.00;24.00
57563;PMS7003;43400;45.926;6.724;2023-01-29T15:31:57;42.00;38.25;24.50
57563;PMS7003;43400;45.926;6.724;2023-01-29T15:34:29;42.00;35.80;22.60
57563;PMS7003;43400;45.926;6.724;2023-01-29T15:37:01;41.25;36.00;24.25
57563;PMS7003;43400;45.926;6.724;2023-01-29T15:39:32;41.80;36.60;24.00
57563;PMS7003;43400;45.926;6.724;2023-01-29T15:42:14;33.25;33.00;22.00
57563;PMS7003;43400;45.926;6.724;2023-01-29T15:44:45;32.25;31.75;20.50
57563;PMS7003;43400;45.926;6.724;2023-01-29T15:47:17;36.00;31.80;21.40
57563;PMS7003;43400;45.926;6.724;2023-01-29T15:49:52;44.00;37.50;26.00
57563;PMS7003;43400;45.926;6.724;2023-01-29T15:52:26;42.25;39.00;25.00
57563;PMS7003;43400;45.926;6.724;2023-01-29T15:55:02;45.00;41.50;25.00
57563;PMS7003;43400;45.926;6.724;2023-01-29T15:57:38;49.60;42.00;28.00
57563;PMS7003;43400;45.926;6.724;2023-01-29T16:00:24;46.50;42.50;28.25
57563;PMS7003;43400;45.926;6.724;2023-01-29T16:02:58;43.50;41.00;25.00
57563;PMS7003;43400;45.926;6.724;2023-01-29T16:05:30;43.50;41.00;27.25
57563;PMS7003;43400;45.926;6.724;2023-01-29T16:08:02;40.75;36.50;22.00
57563;PMS7003;43400;45.926;6.724;2023-01-29T16:10:35;36.00;35.60;24.00
57563;PMS7003;43400;45.926;6.724;2023-01-29T16:13:25;34.50;34.50;22.50
57563;PMS7003;43400;45.926;6.724;2023-01-29T16:16:01;46.75;42.25;25.00
57563;PMS7003;43400;45.926;6.724;2023-01-29T16:18:46;49.50;43.50;26.00
57563;PMS7003;43400;45.926;6.724;2023-01-29T16:24:08;40.40;37.00;25.00
57563;PMS7003;43400;45.926;6.724;2023-01-29T16:26:46;44.00;41.00;27.40
57563;PMS7003;43400;45.926;6.724;2023-01-29T16:29:21;48.00;42.40;27.00
57563;PMS7003;43400;45.926;6.724;2023-01-29T16:31:59;50.20;44.20;27.80
57563;PMS7003;43400;45.926;6.724;2023-01-29T16:34:37;52.25;45.75;30.00
57563;PMS7003;43400;45.926;6.724;2023-01-29T16:40:15;59.40;49.00;30.00
57563;PMS7003;43400;45.926;6.724;2023-01-29T16:43:04;58.60;48.20;30.20
57563;PMS7003;43400;45.926;6.724;2023-01-29T16:46:01;83.75;66.25;38.50
57563;PMS7003;43400;45.926;6.724;2023-01-29T16:48:34;88.25;68.25;40.00
57563;PMS7003;43400;45.926;6.724;2023-01-29T16:51:13;91.00;70.00;43.00
57563;PMS7003;43400;45.926;6.724;2023-01-29T16:53:51;70.00;58.75;37.00
57563;PMS7003;43400;45.926;6.724;2023-01-29T16:56:30;77.50;60.25;38.25